Beloit, Kansas
Current Conditions -  °F | °C
As of 10:55 AM on Friday 24 Oct 2014 (Local Time) from KCNK Reporting Station
Haze Haze  
Wind Chill: 64°   Ceiling: Unl
Heat Index: 64°   Visibility: 6mi
Dew Point: 61°   Wind: 9mph
Humidity: 90%   Direction: 220°SW
Pressure: 30"   Gusts: NA
Location:  39.46°N, 98.11°W
Report Text: KCNK 241555Z AUTO 22008KT 6SM BR CLR 18/16 A3000 RMK AO2 SLP152 T01780161
Loading
Personal Weather Stations






























Interactive Weather Map New forecast layout! Learn more

10-Day Weather Forecast

Advertisements
Track Severe Weather on mobile